createdAt,value
2023-04-08T00:02:12.832Z,14.80
2023-04-08T00:04:39.303Z,14.15
2023-04-08T00:07:06.060Z,13.60
2023-04-08T00:09:32.481Z,14.65
2023-04-08T00:11:58.955Z,14.50
2023-04-08T00:14:25.691Z,14.57
2023-04-08T00:16:52.014Z,14.48
2023-04-08T00:19:18.354Z,14.85
2023-04-08T00:21:44.714Z,14.68
2023-04-08T00:24:11.009Z,14.98
2023-04-08T00:26:37.733Z,14.25
2023-04-08T00:29:04.173Z,15.70
2023-04-08T00:31:30.493Z,16.33
2023-04-08T00:33:57.674Z,14.63
2023-04-08T00:36:24.015Z,14.77
2023-04-08T00:38:50.797Z,14.55
2023-04-08T00:41:17.611Z,15.57
2023-04-08T00:43:43.970Z,14.23
2023-04-08T00:46:10.814Z,15.82
2023-04-08T00:48:37.196Z,21.13
2023-04-08T00:51:03.646Z,15.90
2023-04-08T00:53:30.719Z,17.38
2023-04-08T00:55:57.181Z,15.05
2023-04-08T00:58:23.632Z,16.77
2023-04-08T01:01:02.134Z,13.40
2023-04-08T01:03:40.890Z,16.55
2023-04-08T01:06:11.524Z,14.43
2023-04-08T01:08:38.861Z,13.52
2023-04-08T01:11:08.349Z,12.15
2023-04-08T01:13:36.093Z,11.82
2023-04-08T01:16:02.755Z,10.77
2023-04-08T01:18:29.717Z,12.90
2023-04-08T01:20:56.612Z,10.90
2023-04-08T01:23:41.611Z,13.18
2023-04-08T01:26:07.984Z,12.77
2023-04-08T01:28:35.566Z,12.68
2023-04-08T01:31:02.317Z,11.15
2023-04-08T01:33:29.490Z,16.23
2023-04-08T01:35:56.979Z,12.38
2023-04-08T01:38:25.805Z,12.15
2023-04-08T01:40:53.207Z,12.18
2023-04-08T01:43:19.765Z,12.98
2023-04-08T01:45:46.984Z,12.30
2023-04-08T01:48:14.684Z,11.65
2023-04-08T01:50:44.940Z,14.07
2023-04-08T01:53:12.167Z,13.88
2023-04-08T01:55:40.012Z,12.77
2023-04-08T01:58:07.419Z,14.45
2023-04-08T02:00:34.919Z,11.32
2023-04-08T02:03:02.918Z,14.40
2023-04-08T02:05:29.444Z,14.80
2023-04-08T02:07:55.826Z,11.38
2023-04-08T02:10:22.177Z,11.43
2023-04-08T02:12:49.245Z,10.75
2023-04-08T02:15:15.774Z,11.57
2023-04-08T02:17:47.090Z,11.85
2023-04-08T02:20:40.053Z,11.40
2023-04-08T02:23:06.415Z,11.18
2023-04-08T02:25:34.605Z,11.80
2023-04-08T02:28:03.040Z,12.35
2023-04-08T02:30:30.898Z,11.85
2023-04-08T02:32:58.152Z,12.15
2023-04-08T02:35:24.763Z,12.27
2023-04-08T02:37:51.230Z,12.95
2023-04-08T02:40:30.313Z,11.27
2023-04-08T02:42:56.757Z,10.43
2023-04-08T02:45:23.481Z,11.88
2023-04-08T02:47:49.817Z,10.95
2023-04-08T02:50:16.453Z,11.70
2023-04-08T02:52:43.852Z,10.95
2023-04-08T02:55:10.668Z,9.27
2023-04-08T02:57:38.054Z,11.10
2023-04-08T03:00:05.377Z,10.45
2023-04-08T03:02:31.999Z,10.50
2023-04-08T03:04:58.474Z,10.63
2023-04-08T03:07:24.801Z,11.75
2023-04-08T03:09:51.264Z,12.00
2023-04-08T03:12:17.598Z,12.13
2023-04-08T03:14:43.949Z,11.30
2023-04-08T03:17:10.330Z,11.85
2023-04-08T03:19:36.652Z,10.32
2023-04-08T03:22:02.907Z,10.90
2023-04-08T03:24:29.270Z,10.82
2023-04-08T03:26:55.716Z,11.45
2023-04-08T03:29:22.085Z,11.68
2023-04-08T03:31:48.648Z,11.23
2023-04-08T03:34:14.956Z,12.80
2023-04-08T03:36:41.298Z,12.35
2023-04-08T03:39:07.623Z,11.95
2023-04-08T03:41:33.971Z,12.25
2023-04-08T03:44:00.374Z,11.30
2023-04-08T03:46:26.836Z,11.95
2023-04-08T03:48:53.274Z,11.65
2023-04-08T03:51:19.571Z,10.63
2023-04-08T03:53:45.905Z,14.38
2023-04-08T03:56:12.448Z,13.55
2023-04-08T03:58:38.714Z,11.40
2023-04-08T04:01:05.301Z,12.10
2023-04-08T04:03:32.071Z,12.80
2023-04-08T04:05:58.521Z,14.07
2023-04-08T04:08:24.891Z,13.68
2023-04-08T04:10:51.573Z,13.75
2023-04-08T04:13:19.548Z,13.75
2023-04-08T04:15:46.103Z,13.82
2023-04-08T04:18:12.626Z,13.52
2023-04-08T04:20:42.553Z,13.93
2023-04-08T04:23:09.496Z,14.63
2023-04-08T04:25:35.924Z,14.20
2023-04-08T04:28:03.235Z,13.32
2023-04-08T04:30:29.519Z,13.70
2023-04-08T04:32:56.428Z,12.88
2023-04-08T04:35:22.891Z,13.02
2023-04-08T04:37:50.257Z,14.27
2023-04-08T04:40:16.654Z,13.88
2023-04-08T04:42:43.068Z,13.07
2023-04-08T04:45:10.047Z,13.75
2023-04-08T04:47:36.490Z,12.70
2023-04-08T04:50:02.826Z,13.35
2023-04-08T04:52:29.245Z,13.32
2023-04-08T04:54:57.116Z,13.57
2023-04-08T04:57:23.664Z,12.68
2023-04-08T04:59:50.007Z,13.07
2023-04-08T05:02:16.683Z,13.00
2023-04-08T05:04:43.188Z,12.48
2023-04-08T05:07:09.496Z,11.95
2023-04-08T05:09:36.041Z,13.18
2023-04-08T05:12:02.475Z,12.45
2023-04-08T05:14:29.406Z,12.88
2023-04-08T05:16:55.674Z,12.95
2023-04-08T05:19:22.126Z,11.52
2023-04-08T05:21:48.483Z,11.27
2023-04-08T05:24:14.917Z,12.18
2023-04-08T05:26:41.267Z,12.45
2023-04-08T05:29:07.570Z,12.45
2023-04-08T05:31:33.912Z,12.32
2023-04-08T05:34:00.273Z,12.10
2023-04-08T05:36:27.301Z,12.80
2023-04-08T05:38:53.637Z,11.93
2023-04-08T05:41:20.035Z,13.20
2023-04-08T05:43:46.334Z,11.75
2023-04-08T05:46:12.723Z,12.00
2023-04-08T05:48:39.080Z,12.80
2023-04-08T05:51:05.473Z,10.80
2023-04-08T05:53:32.226Z,11.05
2023-04-08T05:55:58.517Z,11.20
2023-04-08T05:58:24.958Z,11.55
2023-04-08T06:00:51.430Z,11.85
2023-04-08T06:03:20.503Z,10.77
2023-04-08T06:05:47.250Z,10.20
2023-04-08T06:08:13.792Z,10.40
2023-04-08T06:10:40.195Z,9.80
2023-04-08T06:13:06.613Z,9.75
2023-04-08T06:15:32.952Z,9.30
2023-04-08T06:17:59.260Z,9.18
2023-04-08T06:20:25.743Z,7.97
2023-04-08T06:22:52.023Z,9.35
2023-04-08T06:25:18.327Z,8.55
2023-04-08T06:27:44.843Z,9.07
2023-04-08T06:30:11.315Z,9.55
2023-04-08T06:32:37.932Z,9.57
2023-04-08T06:35:04.448Z,9.07
2023-04-08T06:37:30.716Z,9.35
2023-04-08T06:39:57.039Z,9.20
2023-04-08T06:42:23.307Z,9.25
2023-04-08T06:44:49.548Z,9.35
2023-04-08T06:47:17.089Z,9.27
2023-04-08T06:49:43.425Z,9.48
2023-04-08T06:52:09.720Z,10.00
2023-04-08T06:54:36.086Z,9.65
2023-04-08T06:57:02.723Z,10.05
2023-04-08T06:59:29.992Z,9.30
2023-04-08T07:01:56.609Z,10.10
2023-04-08T07:04:23.236Z,9.88
2023-04-08T07:06:50.131Z,9.88
2023-04-08T07:09:16.524Z,10.13
2023-04-08T07:11:43.024Z,9.70
2023-04-08T07:14:09.387Z,12.00
2023-04-08T07:16:35.723Z,12.07
2023-04-08T07:19:02.131Z,11.57
2023-04-08T07:21:28.660Z,11.60
2023-04-08T07:23:55.002Z,10.43
2023-04-08T07:26:22.127Z,10.80
2023-04-08T07:28:49.401Z,10.23
2023-04-08T07:31:16.796Z,9.93
2023-04-08T07:33:43.588Z,9.32
2023-04-08T07:36:10.655Z,8.43
2023-04-08T07:38:37.467Z,9.55
2023-04-08T07:41:03.998Z,8.32
2023-04-08T07:43:37.166Z,8.05
2023-04-08T07:46:06.518Z,7.90
2023-04-08T07:48:33.263Z,7.68
2023-04-08T07:51:10.106Z,8.30
2023-04-08T07:53:37.896Z,8.50
2023-04-08T07:56:10.136Z,8.27
2023-04-08T07:58:36.465Z,8.65
2023-04-08T08:01:03.012Z,8.07
2023-04-08T08:03:31.234Z,8.15
2023-04-08T08:05:58.838Z,8.05
2023-04-08T08:08:25.175Z,8.13
2023-04-08T08:10:51.461Z,8.60
2023-04-08T08:13:21.116Z,8.73
2023-04-08T08:15:47.463Z,8.00
2023-04-08T08:18:13.902Z,7.65
2023-04-08T08:20:40.391Z,8.02
2023-04-08T08:23:06.684Z,8.18
2023-04-08T08:25:33.014Z,8.93
2023-04-08T08:27:59.275Z,8.25
2023-04-08T08:30:26.525Z,7.40
2023-04-08T08:32:53.015Z,7.90
2023-04-08T08:35:19.351Z,8.40
2023-04-08T08:37:45.700Z,8.43
2023-04-08T08:40:12.258Z,7.85
2023-04-08T08:42:39.026Z,7.95
2023-04-08T08:45:06.977Z,7.88
2023-04-08T08:47:33.416Z,7.63
2023-04-08T08:49:59.867Z,8.25
2023-04-08T08:52:26.300Z,8.05
2023-04-08T08:54:59.057Z,7.65
2023-04-08T08:57:25.662Z,7.68
2023-04-08T08:59:52.522Z,7.78
2023-04-08T09:02:26.938Z,7.47
2023-04-08T09:04:57.556Z,7.22
2023-04-08T09:07:25.742Z,8.20
2023-04-08T09:09:52.472Z,7.60
2023-04-08T09:12:18.997Z,8.32
2023-04-08T09:14:45.378Z,8.10
2023-04-08T09:17:13.052Z,8.48
2023-04-08T09:19:39.378Z,8.45
2023-04-08T09:22:09.412Z,8.70
2023-04-08T09:24:37.296Z,8.02
2023-04-08T09:27:04.437Z,7.78
2023-04-08T09:29:33.835Z,8.27
2023-04-08T09:32:01.557Z,8.57
2023-04-08T09:34:28.751Z,8.40
2023-04-08T09:36:56.138Z,8.32
2023-04-08T09:39:23.069Z,8.55
2023-04-08T09:41:50.981Z,8.70
2023-04-08T09:44:18.455Z,8.63
2023-04-08T09:46:44.720Z,8.05
2023-04-08T09:49:18.339Z,9.32
2023-04-08T09:51:44.791Z,8.50
2023-04-08T09:54:13.811Z,8.40
2023-04-08T09:57:00.731Z,8.88
2023-04-08T09:59:31.359Z,8.73
2023-04-08T10:04:26.620Z,8.63
2023-04-08T10:06:57.723Z,9.38
2023-04-08T10:09:24.177Z,9.10
2023-04-08T10:11:50.958Z,9.35
2023-04-08T10:14:17.599Z,8.80
2023-04-08T10:16:43.974Z,8.25
2023-04-08T10:19:29.150Z,8.10
2023-04-08T10:21:55.569Z,8.40
2023-04-08T10:24:25.634Z,8.05
2023-04-08T10:26:52.032Z,8.63
2023-04-08T10:29:18.437Z,8.60
2023-04-08T10:31:48.494Z,7.97
2023-04-08T10:34:21.495Z,8.85
2023-04-08T10:36:48.855Z,8.00
2023-04-08T10:39:18.405Z,8.48
2023-04-08T10:41:45.508Z,7.78
2023-04-08T10:44:21.969Z,8.00
2023-04-08T10:46:49.241Z,8.25
2023-04-08T10:49:16.544Z,7.60
2023-04-08T10:51:44.291Z,8.38
2023-04-08T10:54:11.592Z,8.18
2023-04-08T10:56:45.579Z,8.82
2023-04-08T10:59:11.996Z,7.75
2023-04-08T11:01:40.505Z,7.38
2023-04-08T11:04:08.070Z,7.65
2023-04-08T11:06:36.570Z,8.40
2023-04-08T11:09:04.191Z,8.10
2023-04-08T11:11:31.175Z,7.70
2023-04-08T11:13:57.838Z,8.00
2023-04-08T11:16:25.980Z,7.38
2023-04-08T11:18:53.840Z,7.20
2023-04-08T11:21:22.203Z,7.70
2023-04-08T11:23:53.348Z,7.20
2023-04-08T11:26:21.142Z,7.55
2023-04-08T11:28:50.736Z,7.38
2023-04-08T11:31:17.827Z,7.53
2023-04-08T11:33:48.696Z,7.68
2023-04-08T11:36:17.178Z,7.75
2023-04-08T11:38:43.686Z,7.00
2023-04-08T11:41:14.186Z,7.57
2023-04-08T11:43:50.913Z,7.45
2023-04-08T11:46:17.490Z,8.30
2023-04-08T11:48:56.905Z,7.95
2023-04-08T11:51:23.945Z,7.78
2023-04-08T11:53:53.337Z,7.25
2023-04-08T11:56:24.599Z,7.40
2023-04-08T11:58:51.795Z,7.32
2023-04-08T12:01:18.364Z,7.13
2023-04-08T12:03:54.829Z,7.00
2023-04-08T12:06:21.834Z,7.18
2023-04-08T12:08:48.229Z,6.53
2023-04-08T12:11:19.892Z,6.78
2023-04-08T12:13:46.422Z,6.35
2023-04-08T12:16:12.893Z,6.60
2023-04-08T12:18:39.236Z,6.50
2023-04-08T12:21:05.567Z,7.03
2023-04-08T12:23:32.064Z,6.30
2023-04-08T12:25:58.406Z,5.75
2023-04-08T12:28:24.732Z,5.95
2023-04-08T12:30:51.105Z,5.93
2023-04-08T12:33:17.471Z,6.45
2023-04-08T12:35:44.801Z,6.05
2023-04-08T12:38:11.127Z,6.60
2023-04-08T12:40:37.456Z,5.18
2023-04-08T12:43:03.731Z,5.38
2023-04-08T12:45:30.070Z,5.40
2023-04-08T12:47:56.712Z,5.78
2023-04-08T12:50:23.599Z,5.95
2023-04-08T12:52:49.882Z,5.22
2023-04-08T12:55:16.356Z,5.72
2023-04-08T12:57:42.735Z,5.22
2023-04-08T13:00:09.473Z,5.30
2023-04-08T13:02:35.860Z,4.40
2023-04-08T13:05:02.294Z,4.20
2023-04-08T13:07:28.659Z,4.00
2023-04-08T13:09:54.966Z,4.97
2023-04-08T13:12:21.478Z,4.70
2023-04-08T13:14:47.788Z,4.20
2023-04-08T13:17:14.088Z,4.03
2023-04-08T13:19:40.387Z,4.55
2023-04-08T13:22:06.927Z,4.65
2023-04-08T13:24:33.646Z,4.68
2023-04-08T13:27:00.041Z,5.70
2023-04-08T13:29:26.370Z,5.93
2023-04-08T13:31:53.358Z,4.97
2023-04-08T13:34:19.723Z,4.53
2023-04-08T13:36:45.997Z,5.10
2023-04-08T13:39:12.272Z,5.20
2023-04-08T13:41:38.748Z,5.20
2023-04-08T13:44:05.651Z,5.43
2023-04-08T13:46:31.954Z,5.18
2023-04-08T13:48:58.310Z,5.43
2023-04-08T13:51:24.597Z,5.30
2023-04-08T13:53:51.083Z,5.07
2023-04-08T13:56:17.362Z,5.93
2023-04-08T13:58:44.778Z,5.72
2023-04-08T14:01:14.017Z,5.57
2023-04-08T14:03:40.785Z,5.72
2023-04-08T14:06:07.079Z,5.80
2023-04-08T14:08:33.397Z,5.53
2023-04-08T14:10:59.884Z,5.78
2023-04-08T14:13:26.478Z,5.53
2023-04-08T14:15:54.968Z,4.90
2023-04-08T14:18:21.289Z,4.78
2023-04-08T14:20:47.640Z,5.30
2023-04-08T14:23:13.889Z,5.80
2023-04-08T14:25:40.885Z,5.95
2023-04-08T14:28:08.000Z,6.35
2023-04-08T14:30:36.110Z,6.65
2023-04-08T14:33:02.809Z,5.97
2023-04-08T14:35:29.221Z,5.80
2023-04-08T14:37:55.776Z,5.68
2023-04-08T14:40:22.324Z,4.97
2023-04-08T14:42:49.837Z,6.10
2023-04-08T14:45:16.307Z,6.20
2023-04-08T14:47:42.642Z,5.28
2023-04-08T14:50:09.205Z,5.75
2023-04-08T14:52:35.670Z,5.38
2023-04-08T14:55:02.941Z,4.97
2023-04-08T14:57:29.324Z,5.20
2023-04-08T15:03:11.146Z,4.80
2023-04-08T15:05:38.473Z,5.32
2023-04-08T15:08:05.206Z,5.15
2023-04-08T15:10:32.089Z,4.68
2023-04-08T15:12:58.438Z,4.93
2023-04-08T15:15:24.736Z,4.90
2023-04-08T15:17:52.085Z,6.35
2023-04-08T15:20:18.723Z,6.03
2023-04-08T15:22:45.444Z,5.80
2023-04-08T15:25:11.858Z,6.25
2023-04-08T15:27:38.619Z,6.05
2023-04-08T15:30:08.267Z,6.05
2023-04-08T15:32:34.625Z,6.33
2023-04-08T15:35:01.958Z,5.78
2023-04-08T15:37:28.647Z,6.00
2023-04-08T15:39:55.030Z,6.18
2023-04-08T15:42:21.652Z,6.35
2023-04-08T15:44:48.260Z,6.07
2023-04-08T15:47:14.818Z,6.45
2023-04-08T15:49:41.229Z,6.40
2023-04-08T15:52:07.579Z,6.13
2023-04-08T15:54:34.213Z,6.50
2023-04-08T15:57:00.600Z,7.15
2023-04-08T15:59:29.297Z,6.45
2023-04-08T16:01:55.741Z,6.20
2023-04-08T16:04:23.009Z,6.80
2023-04-08T16:06:49.754Z,6.97
2023-04-08T16:09:18.662Z,6.78
2023-04-08T16:11:44.972Z,7.32
2023-04-08T16:14:12.105Z,6.50
2023-04-08T16:16:38.767Z,6.07
2023-04-08T16:19:05.440Z,6.40
2023-04-08T16:21:31.813Z,6.38
2023-04-08T16:23:58.169Z,7.00
2023-04-08T16:26:24.556Z,6.57
2023-04-08T16:28:53.930Z,6.50
2023-04-08T16:31:20.354Z,6.70
2023-04-08T16:33:46.719Z,6.55
2023-04-08T16:36:13.165Z,6.90
2023-04-08T16:38:39.483Z,7.05
2023-04-08T16:41:09.863Z,6.93
2023-04-08T16:43:37.025Z,6.95
2023-04-08T16:46:11.132Z,7.53
2023-04-08T16:48:39.055Z,7.18
2023-04-08T16:51:06.066Z,7.20
2023-04-08T16:53:32.397Z,7.70
2023-04-08T16:55:58.723Z,8.05
2023-04-08T16:58:25.106Z,7.90
2023-04-08T17:00:51.507Z,7.78
2023-04-08T17:03:17.963Z,8.20
2023-04-08T17:05:44.402Z,8.15
2023-04-08T17:08:11.228Z,8.05
2023-04-08T17:10:37.682Z,8.73
2023-04-08T17:13:05.300Z,9.10
2023-04-08T17:15:31.754Z,9.38
2023-04-08T17:17:58.295Z,10.15
2023-04-08T17:20:26.423Z,10.02
2023-04-08T17:22:52.789Z,10.82
2023-04-08T17:25:19.167Z,10.98
2023-04-08T17:27:45.478Z,10.75
2023-04-08T17:30:11.858Z,11.10
2023-04-08T17:32:38.703Z,12.25
2023-04-08T17:35:05.289Z,12.00
2023-04-08T17:37:31.797Z,12.25
2023-04-08T17:39:58.161Z,12.10
2023-04-08T17:42:24.564Z,12.52
2023-04-08T17:44:50.899Z,13.10
2023-04-08T17:47:17.275Z,12.95
2023-04-08T17:49:43.580Z,12.43
2023-04-08T17:52:09.899Z,12.48
2023-04-08T17:54:36.269Z,13.13
2023-04-08T17:57:03.181Z,13.10
2023-04-08T17:59:29.487Z,12.60
2023-04-08T18:01:56.027Z,13.23
2023-04-08T18:04:22.876Z,11.77
2023-04-08T18:06:49.323Z,12.23
2023-04-08T18:09:15.637Z,11.80
2023-04-08T18:11:41.935Z,12.35
2023-04-08T18:14:08.556Z,12.13
2023-04-08T18:16:34.906Z,12.50
2023-04-08T18:19:01.209Z,12.25
2023-04-08T18:21:27.917Z,12.07
2023-04-08T18:23:54.521Z,12.02
2023-04-08T18:26:23.255Z,12.43
2023-04-08T18:28:49.582Z,11.60
2023-04-08T18:31:16.623Z,13.15
2023-04-08T18:33:43.104Z,12.60
2023-04-08T18:36:10.255Z,13.95
2023-04-08T18:38:36.809Z,13.35
2023-04-08T18:41:06.520Z,13.23
2023-04-08T18:43:33.344Z,13.52
2023-04-08T18:45:59.860Z,14.60
2023-04-08T18:48:26.531Z,13.45
2023-04-08T18:50:53.453Z,13.75
2023-04-08T18:53:19.837Z,13.60
2023-04-08T18:55:46.121Z,13.38
2023-04-08T18:58:12.503Z,14.13
2023-04-08T19:00:43.631Z,14.15
2023-04-08T19:03:12.710Z,13.32
2023-04-08T19:05:39.241Z,13.05
2023-04-08T19:08:06.529Z,12.85
2023-04-08T19:10:33.478Z,14.25
2023-04-08T19:13:00.579Z,13.90
2023-04-08T19:15:28.529Z,13.57
2023-04-08T19:17:54.858Z,13.57
2023-04-08T19:20:21.300Z,14.55
2023-04-08T19:22:51.026Z,14.25
2023-04-08T19:25:17.996Z,12.63
2023-04-08T19:27:45.930Z,13.45
2023-04-08T19:30:15.098Z,13.60
2023-04-08T19:32:43.039Z,13.20
2023-04-08T19:35:11.600Z,12.43
2023-04-08T19:37:37.941Z,12.93
2023-04-08T19:40:04.551Z,12.35
2023-04-08T19:42:31.125Z,13.35
2023-04-08T19:44:57.518Z,12.77
2023-04-08T19:47:23.944Z,13.35
2023-04-08T19:49:50.271Z,12.95
2023-04-08T19:52:16.638Z,12.93
2023-04-08T19:54:43.570Z,13.75
2023-04-08T19:57:11.688Z,13.20
2023-04-08T19:59:38.176Z,13.50
2023-04-08T20:02:04.641Z,13.05
2023-04-08T20:04:31.511Z,13.23
2023-04-08T20:06:58.082Z,13.55
2023-04-08T20:09:24.429Z,13.48
2023-04-08T20:11:50.981Z,13.77
2023-04-08T20:14:17.403Z,13.60
2023-04-08T20:16:43.723Z,13.50
2023-04-08T20:19:10.307Z,13.43
2023-04-08T20:21:36.598Z,13.77
2023-04-08T20:24:03.152Z,14.40
2023-04-08T20:26:29.488Z,14.05
2023-04-08T20:28:58.498Z,14.18
2023-04-08T20:31:25.326Z,13.50
2023-04-08T20:33:51.650Z,13.52
2023-04-08T20:36:20.331Z,14.65
2023-04-08T20:38:46.641Z,14.43
2023-04-08T20:41:17.525Z,13.35
2023-04-08T20:43:43.830Z,13.82
2023-04-08T20:46:10.475Z,14.93
2023-04-08T20:48:37.093Z,13.32
2023-04-08T20:51:03.565Z,13.60
2023-04-08T20:53:29.948Z,13.93
2023-04-08T20:55:56.291Z,13.80
2023-04-08T20:58:22.594Z,15.18
2023-04-08T21:00:49.163Z,14.65
2023-04-08T21:03:15.674Z,14.40
2023-04-08T21:05:42.153Z,14.27
2023-04-08T21:08:08.721Z,14.10
2023-04-08T21:10:35.312Z,13.60
2023-04-08T21:13:04.752Z,13.90
2023-04-08T21:15:31.069Z,13.93
2023-04-08T21:17:57.528Z,14.85
2023-04-08T21:20:23.970Z,15.90
2023-04-08T21:22:50.351Z,14.40
2023-04-08T21:25:17.609Z,14.48
2023-04-08T21:27:43.920Z,15.20
2023-04-08T21:30:10.393Z,14.35
2023-04-08T21:32:36.825Z,15.00
2023-04-08T21:35:03.266Z,14.80
2023-04-08T21:37:29.583Z,14.70
2023-04-08T21:39:56.053Z,14.82
2023-04-08T21:42:22.952Z,15.70
2023-04-08T21:44:49.595Z,15.18
2023-04-08T21:47:15.969Z,15.13
2023-04-08T21:49:42.357Z,17.35
2023-04-08T21:52:08.685Z,16.40
2023-04-08T21:54:35.125Z,15.88
2023-04-08T21:57:01.817Z,16.75
2023-04-08T21:59:28.145Z,16.30
2023-04-08T22:01:54.524Z,16.58
2023-04-08T22:04:20.904Z,16.15
2023-04-08T22:06:49.365Z,17.30
2023-04-08T22:09:16.677Z,18.02
2023-04-08T22:11:42.996Z,18.23
2023-04-08T22:14:09.409Z,17.70
2023-04-08T22:16:36.599Z,17.52
2023-04-08T22:19:02.933Z,19.52
2023-04-08T22:21:29.273Z,17.77
2023-04-08T22:23:55.682Z,17.73
2023-04-08T22:26:21.973Z,17.80
2023-04-08T22:28:48.384Z,18.27
2023-04-08T22:31:14.773Z,18.00
2023-04-08T22:33:41.597Z,18.45
2023-04-08T22:36:08.011Z,18.75
2023-04-08T22:38:34.543Z,18.23
2023-04-08T22:41:00.983Z,17.95
2023-04-08T22:43:27.326Z,17.42
2023-04-08T22:45:53.664Z,16.67
2023-04-08T22:48:20.254Z,16.88
2023-04-08T22:50:47.005Z,18.55
2023-04-08T22:53:13.374Z,17.20
2023-04-08T22:55:39.684Z,18.08
2023-04-08T22:58:05.982Z,17.73
2023-04-08T23:00:32.374Z,17.48
2023-04-08T23:02:58.803Z,17.70
2023-04-08T23:05:25.324Z,16.95
2023-04-08T23:07:51.684Z,18.08
2023-04-08T23:10:18.061Z,17.27
2023-04-08T23:12:44.401Z,16.35
2023-04-08T23:15:10.761Z,17.80
2023-04-08T23:17:37.115Z,16.67
2023-04-08T23:20:03.669Z,17.83
2023-04-08T23:22:30.290Z,16.60
2023-04-08T23:24:56.663Z,18.35
2023-04-08T23:27:22.972Z,17.58
2023-04-08T23:29:49.269Z,18.17
2023-04-08T23:32:15.898Z,17.55
2023-04-08T23:34:42.288Z,17.35
2023-04-08T23:37:08.620Z,17.38
2023-04-08T23:39:34.928Z,17.05
2023-04-08T23:42:01.731Z,17.60
2023-04-08T23:44:28.095Z,16.70
2023-04-08T23:46:54.544Z,17.48
2023-04-08T23:49:21.030Z,17.92
2023-04-08T23:51:47.376Z,18.08
2023-04-08T23:54:13.703Z,17.83
2023-04-08T23:56:40.569Z,17.08
2023-04-08T23:59:06.917Z,17.67
